Latest Weather Observations for Warruwi

IDD60801

Issued at 7:51 am CST Monday 1 March 2021 (issued every 10 minutes, with the page automatically refreshed every 10 minutes)

About weather observations | Map of weather stations | Latest weather observations for NT | Other Formats
Station Details ID: 014401 Name: WARRUWI AIRPORT Lat: -11.65 Lon: 133.38 Height: 19.2 m
Data from the previous 72 hours. | See also: Recent months at Warruwi
Date/Time
CST
Temp
°C
App
Temp
°C
Dew
Point
°C
Rel
Hum
%
Delta-T
°C
Wind Press
QNH
hPa
Press
MSL
hPa
Rain since
9am
mm
Dir  Spd
km/h
Gust
km/h
Spd
kts
Gust
kts
01/07:30am 28.4 32.1 25.2 83 2.2 WNW 15 26 8 14 1009.0 1008.8 0.0
01/07:00am 28.0 32.4 25.0 84 2.1 WNW 11 20 6 11 1008.7 1008.5 0.0
01/06:30am 27.9 32.8 25.3 86 1.8 WNW 9 17 5 9 1008.5 1008.3 0.0
01/06:00am 27.9 32.6 24.9 84 2.1 WNW 9 17 5 9 1008.3 1008.1 0.0
01/05:30am 27.9 32.1 24.7 83 2.2 WNW 11 17 6 9 1008.0 1007.8 0.0
01/05:00am 27.9 32.2 24.9 84 2.1 WNW 11 20 6 11 1007.9 1007.7 0.0
01/04:30am 27.9 32.1 24.7 83 2.2 WNW 11 17 6 9 1007.7 1007.5 0.0
01/04:00am 27.9 32.2 24.9 84 2.1 WNW 11 19 6 10 1007.9 1007.7 0.0
01/03:30am 27.9 32.3 25.1 85 2.0 WNW 11 17 6 9 1007.9 1007.7 0.0
01/03:00am 27.9 32.2 24.9 84 2.1 WNW 11 17 6 9 1008.0 1007.8 0.0
01/02:30am 27.8 32.2 25.0 85 2.0 W 11 15 6 8 1008.2 1008.0 0.0
01/02:00am 28.0 32.2 24.8 83 2.2 WNW 11 17 6 9 1008.2 1008.0 0.0
01/01:30am 28.1 32.4 24.9 83 2.2 WNW 11 17 6 9 1008.6 1008.4 0.0
01/01:00am 28.0 32.7 25.0 84 2.1 WNW 9 15 5 8 1008.7 1008.5 0.0
01/12:30am 28.0 32.5 24.6 82 2.4 WNW 9 13 5 7 1009.0 1008.8 0.0
01/12:00am 28.1 32.2 24.5 81 2.5 WNW 11 17 6 9 1009.2 1009.0 0.0
 
Date/Time
CST
Temp
°C
App
Temp
°C
Dew
Point
°C
Rel
Hum
%
Delta-T
°C
Wind Press
QNH
hPa
Press
MSL
hPa
Rain since
9am
mm
Dir  Spd
km/h
Gust
km/h
Spd
kts
Gust
kts
28/11:30pm 28.2 32.6 24.4 80 2.6 W 9 15 5 8 1009.3 1009.1 0.0
28/11:00pm 28.3 32.7 24.5 80 2.6 WNW 9 15 5 8 1009.3 1009.1 0.0
28/10:30pm 28.1 32.7 24.1 79 2.8 WNW 7 15 4 8 1009.0 1008.8 0.0
28/10:00pm 28.0 32.5 24.0 79 2.8 WNW 7 13 4 7 1008.7 1008.5 0.0
28/09:30pm 28.0 31.9 24.2 80 2.6 W 11 19 6 10 1008.5 1008.3 0.0
28/09:00pm 27.8 31.6 24.0 80 2.6 W 11 15 6 8 1008.0 1007.8 0.0
28/08:30pm 27.1 30.7 23.8 82 2.3 WSW 11 13 6 7 1007.6 1007.4 0.0
28/08:00pm 27.5 30.4 23.9 81 2.5 W 15 20 8 11 1007.4 1007.2 0.0
28/07:30pm 28.2 30.3 23.8 77 3.0 WSW 19 28 10 15 1007.3 1007.1 0.0
28/07:00pm 28.8 32.4 23.7 74 3.5 WNW 11 20 6 11 1006.9 1006.7 0.0
28/06:30pm 28.7 33.0 24.3 77 3.1 NW 9 13 5 7 1006.2 1006.0 0.0
28/06:00pm 28.8 33.6 24.4 77 3.1 NW 7 13 4 7 1006.0 1005.8 0.0
28/05:30pm 29.4 33.5 24.5 75 3.4 NW 11 20 6 11 1005.8 1005.6 0.0
28/05:00pm 29.5 34.1 24.8 76 3.3 NNW 9 19 5 10 1005.5 1005.3 0.0
28/04:30pm 30.0 35.1 24.9 74 3.6 NNW 7 17 4 9 1005.5 1005.3 0.0
28/04:00pm 30.2 34.4 24.8 73 3.8 NW 11 19 6 10 1005.6 1005.4 0.0
28/03:30pm 30.6 35.0 24.5 70 4.3 NNW 9 19 5 10 1006.0 1005.8 0.0
28/03:00pm 30.9 34.9 23.8 66 4.9 NW 9 15 5 8 1006.2 1006.0 0.0
28/02:30pm 30.3 35.1 24.4 70 4.1 NNW 7 13 4 7 1006.6 1006.4 0.0
28/02:00pm 30.3 34.8 24.0 69 4.4 NNW 7 11 4 6 1007.3 1007.1 0.0
28/01:30pm 30.9 36.2 25.0 71 4.2 NW 6 15 3 8 1007.6 1007.4 0.0
28/01:00pm 30.6 35.0 24.5 70 4.3 WNW 9 15 5 8 1007.9 1007.7 0.0
28/12:30pm 30.3 35.3 25.4 75 3.5 WNW 9 17 5 9 1008.5 1008.3 0.0
28/12:00pm 29.6 34.0 25.1 77 3.2 WNW 11 17 6 9 1008.9 1008.7 0.0
28/11:30am 29.8 34.4 24.7 74 3.6 WNW 9 17 5 9 1009.1 1008.9 0.0
28/11:00am 30.0 33.9 24.9 74 3.6 WNW 13 20 7 11 1009.4 1009.2 0.0
28/10:30am 29.8 34.4 25.3 77 3.2 WNW 11 19 6 10 1009.6 1009.4 0.0
28/10:00am 29.5 34.2 25.0 77 3.2 WNW 9 15 5 8 1009.6 1009.4 0.0
28/09:30am 29.2 34.1 25.2 79 2.8 WNW 9 17 5 9 1009.7 1009.5 0.0
28/09:00am 29.0 34.3 25.2 80 2.7 WNW 7 15 4 8 1009.4 1009.2 0.0
28/08:30am 28.5 33.2 24.9 81 2.5 W 9 13 5 7 1009.0 1008.8 0.0
28/08:00am 28.3 33.5 25.1 83 2.2 W 7 13 4 7 1008.4 1008.2 0.0
28/07:30am 27.6 32.6 25.4 88 1.5 W 9 13 5 7 1008.1 1007.9 0.0
28/07:00am 26.6 32.4 25.2 92 1.0 SW 4 6 2 3 1007.8 1007.6 0.0
28/06:30am 26.7 32.5 25.1 91 1.1 SW 4 7 2 4 1007.5 1007.3 0.0
28/06:00am 26.9 32.4 25.3 91 1.1 WSW 6 9 3 5 1007.1 1006.9 0.0
28/05:30am 26.4 33.0 25.2 93 0.8 CALM 0 0 0 0 1007.0 1006.8 0.0
28/05:00am 26.3 32.8 25.1 93 0.8 CALM 0 0 0 0 1006.5 1006.3 0.0
28/04:30am 26.3 32.8 25.1 93 0.8 CALM 0 0 0 0 1006.4 1006.2 0.0
28/04:00am 26.4 32.9 25.0 92 1.0 CALM 0 0 0 0 1006.8 1006.6 0.0
28/03:30am 26.5 33.1 25.3 93 0.8 CALM 0 0 0 0 1007.2 1007.0 0.0
28/03:00am 26.4 32.9 25.0 92 1.0 CALM 0 0 0 0 1007.2 1007.0 0.0
28/02:30am 26.4 32.9 25.0 92 1.0 CALM 0 0 0 0 1007.1 1006.9 0.0
28/02:00am 26.4 32.7 24.8 91 1.1 CALM 0 0 0 0 1007.2 1007.0 0.0
28/01:30am 26.4 32.5 25.0 92 1.0 N 2 6 1 3 1007.5 1007.3 0.0
28/01:00am 26.1 32.4 24.7 92 1.0 CALM 0 2 0 1 1007.7 1007.5 0.0
28/12:30am 26.2 32.4 24.6 91 1.1 CALM 0 6 0 3 1007.8 1007.6 0.0
28/12:00am 26.8 32.4 24.8 89 1.4 SSW 4 4 2 2 1008.0 1007.8 0.0
 
Date/Time
CST
Temp
°C
App
Temp
°C
Dew
Point
°C
Rel
Hum
%
Delta-T
°C
Wind Press
QNH
hPa
Press
MSL
hPa
Rain since
9am
mm
Dir  Spd
km/h
Gust
km/h
Spd
kts
Gust
kts
27/11:30pm 26.5 32.5 24.9 91 1.1 W 2 6 1 3 1008.0 1007.8 0.0
27/11:00pm 26.5 32.9 24.9 91 1.1 CALM 0 0 0 0 1008.1 1007.9 0.0
27/10:30pm 26.7 33.1 24.9 90 1.3 CALM 0 0 0 0 1008.0 1007.8 0.0
27/10:00pm 26.7 33.0 24.7 89 1.4 CALM 0 4 0 2 1007.7 1007.5 0.0
27/09:30pm 26.6 32.4 24.6 89 1.4 NW 2 4 1 2 1007.0 1006.8 0.0
27/09:00pm 26.4 32.4 24.2 88 1.5 CALM 0 0 0 0 1006.6 1006.4 0.0
27/08:30pm 26.7 32.8 24.5 88 1.5 CALM 0 0 0 0 1006.3 1006.1 0.0
27/08:00pm 27.2 33.2 24.3 84 2.0 CALM 0 4 0 2 1005.6 1005.4 0.0
27/07:30pm 27.3 32.9 24.2 83 2.1 NW 2 4 1 2 1005.3 1005.1 0.0
27/07:00pm 27.8 32.9 24.0 80 2.6 NW 4 6 2 3 1005.2 1005.0 0.0
27/06:30pm 28.4 34.0 24.2 78 2.9 NW 2 6 1 3 1005.0 1004.8 0.0
27/06:00pm 28.9 34.0 24.0 75 3.4 NNW 4 7 2 4 1004.6 1004.4 0.0
27/05:30pm 29.4 35.0 24.3 74 3.6 WNW 2 6 1 3 1004.6 1004.4 0.0
27/05:00pm 29.8 34.5 24.0 71 4.0 NNW 6 9 3 5 1004.5 1004.3 0.0
27/04:30pm 30.0 34.9 24.6 73 3.8 NNW 7 17 4 9 1004.4 1004.2 0.0
27/04:00pm 30.2 34.8 24.1 70 4.2 NW 7 13 4 7 1004.5 1004.3 0.0
27/03:30pm 30.2 35.0 24.4 71 4.1 NW 7 13 4 7 1004.5 1004.3 0.0
27/03:00pm 30.6 35.9 25.2 73 3.8 NW 7 13 4 7 1004.7 1004.5 0.0
27/02:30pm 30.3 35.4 24.9 73 3.8 NNW 7 11 4 6 1005.1 1004.9 0.0
27/02:00pm 29.2 34.5 24.3 75 3.4 NW 4 9 2 5 1005.4 1005.2 0.0
27/01:30pm 29.2 34.0 24.5 76 3.3 W 7 11 4 6 1005.8 1005.6 0.0
27/01:00pm 28.9 33.4 23.6 73 3.7 W 6 9 3 5 1006.3 1006.1 0.0
27/12:30pm 29.3 34.4 24.6 76 3.3 W 6 11 3 6 1006.4 1006.2 0.0
27/12:00pm 29.5 34.7 24.8 76 3.3 WNW 6 7 3 4 1006.5 1006.3 0.0
27/11:30am 29.6 34.3 24.0 72 3.9 WNW 6 9 3 5 1006.8 1006.6 0.0
27/11:00am 29.4 34.9 24.0 72 3.7 NE 2 6 1 3 1007.0 1006.8 0.0
27/10:30am 29.1 34.4 24.4 76 3.3 SE 4 7 2 4 1007.0 1006.8 0.0
27/10:00am 28.4 33.5 24.0 77 3.0 SE 4 6 2 3 1006.9 1006.7 0.0
27/09:30am 27.6 32.6 23.8 80 2.6 ESE 4 6 2 3 1006.7 1006.5 0.0
27/09:00am 27.0 32.0 23.9 83 2.1 SSE 4 6 2 3 1006.6 1006.4 20.8
27/08:30am 26.4 32.3 24.1 87 1.6 CALM 0 0 0 0 1006.3 1006.1 20.8
27/08:00am 25.6 31.4 24.0 91 1.1 CALM 0 0 0 0 1005.9 1005.7 20.8
27/07:30am 24.8 30.0 23.6 93 0.8 S 2 6 1 3 1005.7 1005.5 20.8
27/07:00am 24.3 29.2 23.1 93 0.8 S 2 4 1 2 1005.3 1005.1 20.8
27/06:30am 24.5 30.1 23.5 94 0.7 CALM 0 0 0 0 1005.3 1005.1 20.8
27/06:00am 24.4 29.9 23.4 94 0.7 CALM 0 0 0 0 1005.2 1005.0 20.8
27/05:30am 24.5 29.9 23.3 93 0.8 CALM 0 0 0 0 1004.8 1004.6 20.8
27/05:00am 24.4 29.8 23.2 93 0.8 CALM 0 0 0 0 1004.6 1004.4 20.8
27/04:30am 24.4 29.7 23.0 92 0.9 CALM 0 0 0 0 1004.5 1004.3 20.8
27/04:00am 24.3 29.0 22.7 91 1.1 SW 2 6 1 3 1004.6 1004.4 20.8
27/03:30am 24.6 29.6 23.2 92 1.0 SW 2 4 1 2 1004.8 1004.6 20.8
27/03:00am 24.6 29.4 22.8 90 1.2 SSW 2 4 1 2 1005.2 1005.0 20.8
27/02:30am 24.6 28.6 22.8 90 1.2 SW 6 6 3 3 1005.6 1005.4 20.8
27/02:00am 24.6 29.6 23.2 92 0.9 SW 2 4 1 2 1005.8 1005.6 20.8
27/01:30am 24.5 29.1 23.1 92 0.9 SSW 4 6 2 3 1005.8 1005.6 20.8
27/01:00am 24.6 30.0 23.2 92 0.9 CALM 0 2 0 1 1006.0 1005.8 20.8
27/12:30am 24.6 29.7 23.4 93 0.8 S 2 4 1 2 1006.5 1006.3 20.8
27/12:00am 24.5 28.9 23.5 94 0.7 SSW 6 9 3 5 1006.8 1006.6 20.8
 
Date/Time
CST
Temp
°C
App
Temp
°C
Dew
Point
°C
Rel
Hum
%
Delta-T
°C
Wind Press
QNH
hPa
Press
MSL
hPa
Rain since
9am
mm
Dir  Spd
km/h
Gust
km/h
Spd
kts
Gust
kts
26/11:30pm 24.3 28.4 23.3 94 0.7 S 7 11 4 6 1007.0 1006.8 20.6
26/11:00pm 24.2 28.3 23.3 95 0.6 S 7 13 4 7 1007.6 1007.4 20.6
26/10:30pm 24.3 29.8 23.4 95 0.6 CALM 0 0 0 0 1007.7 1007.5 20.6
26/10:00pm 24.8 28.1 23.9 95 0.6 SE 13 22 7 12 1007.7 1007.5 18.4
26/09:32pm 26.8 30.8 23.7 83 2.1 E 9 43 5 23 1006.7 1006.5 0.0
26/09:30pm 27.5 33.1 24.9 86 1.8 E 4 24 2 13 1006.8 1006.6 0.0
26/09:00pm 27.0 32.8 24.5 86 1.7 NE 2 6 1 3 1006.0 1005.8 0.0
26/08:30pm 27.2 33.5 24.7 86 1.7 CALM 0 0 0 0 1005.7 1005.5 0.0
26/08:00pm 27.3 32.5 24.2 83 2.1 ENE 4 6 2 3 1005.2 1005.0 0.0
26/07:30pm 27.3 32.6 23.7 81 2.5 NE 2 6 1 3 1004.9 1004.7 0.0
26/07:00pm 28.1 33.9 23.9 78 2.9 CALM 0 0 0 0 1004.6 1004.4 0.0
26/06:30pm 28.5 33.4 23.6 75 3.4 NNE 4 6 2 3 1004.1 1003.9 0.0
26/06:00pm 28.7 33.4 23.4 73 3.6 NE 4 9 2 5 1003.6 1003.4 0.0
26/05:30pm 29.1 33.7 23.8 73 3.7 NNE 6 9 3 5 1003.3 1003.1 0.0
26/05:00pm 29.5 33.8 23.7 71 4.0 N 7 15 4 8 1002.8 1002.7 0.0
26/04:30pm 30.3 35.4 24.7 72 3.9 ENE 6 13 3 7 1002.7 1002.6 0.0
26/04:00pm 30.2 34.7 23.9 69 4.4 E 7 13 4 7 1002.9 1002.8 0.0
26/03:30pm 30.3 34.8 24.0 69 4.4 ENE 7 11 4 6 1003.2 1003.0 0.0
26/03:00pm 30.6 34.6 23.8 67 4.7 ENE 9 15 5 8 1003.5 1003.3 0.0
26/02:30pm 31.0 35.9 24.4 68 4.6 ESE 6 9 3 5 1003.7 1003.5 0.0
26/02:00pm 30.4 35.5 24.1 69 4.4 SE 4 9 2 5 1004.1 1003.9 0.0
26/01:30pm 30.2 35.6 25.5 76 3.3 W 7 11 4 6 1004.8 1004.6 0.0
26/01:00pm 29.4 33.9 23.6 71 4.0 WSW 6 11 3 6 1005.3 1005.1 0.0
26/12:30pm 29.8 34.4 24.2 72 3.9 ESE 7 13 4 7 1005.8 1005.6 0.0
26/12:00pm 29.5 33.6 23.2 69 4.3 E 7 13 4 7 1005.9 1005.7 0.0
26/11:30am 29.3 33.5 22.5 67 4.6 SSW 4 9 2 5 1006.3 1006.1 0.0
26/11:00am 29.5 33.9 23.4 69 4.2 W 6 11 3 6 1006.4 1006.2 0.0
26/10:30am 29.1 33.7 23.1 70 4.1 E 4 9 2 5 1006.3 1006.1 0.0
26/10:00am 29.0 33.9 23.7 73 3.7 E 4 9 2 5 1006.5 1006.3 0.0
26/09:30am 28.6 32.7 23.3 73 3.6 SE 7 11 4 6 1006.2 1006.0 0.0
26/09:00am 27.8 31.6 22.7 74 3.5 S 7 11 4 6 1006.0 1005.8 0.2
26/08:30am 27.0 29.7 22.2 75 3.2 SSE 11 17 6 9 1005.4 1005.2 0.2
26/08:00am 27.4 31.8 22.8 76 3.1 SE 4 6 2 3 1005.1 1004.9 0.2

Other formats

Comma delimited format used in spreadsheet applications
http://www.bom.gov.au/fwo/IDD60801/IDD60801.94139.axf

JavaScript Object Notation format (JSON) in row-major order
http://www.bom.gov.au/fwo/IDD60801/IDD60801.94139.json

Data quality

Most of these data are generated automatically and are frequently updated. Quality checks on data are not normally performed. It is possible for incorrect values to appear. Refer to information at About Latest Weather Observations and please check the disclaimer before using these data.